Time;durP1;ratioP1;P1;durP2;ratioP2;P2;SDS_P1;SDS_P2;PMS_P1;PMS_P2;Temp;Humidity;BMP_temperature;BMP_pressure;BME280_temperature;BME280_humidity;BME280_pressure;Samples;Min_cycle;Max_cycle;Signal;HPM_P1;HPM_P2
2021/03/17 00:00:57;;;;;;;18.00;5.35;;;16.90;58.70;;;;;;5054127;28;20551;-74
2021/03/17 00:03:24;;;;;;;14.95;4.40;;;16.90;58.70;;;;;;5053969;28;20501;-74
2021/03/17 00:05:50;;;;;;;14.50;4.90;;;16.90;58.70;;;;;;5053703;28;20029;-74
2021/03/17 00:08:21;;;;;;;13.15;4.30;;;16.90;58.70;;;;;;5053688;28;20021;-74
2021/03/17 00:10:49;;;;;;;13.02;4.07;;;16.80;58.70;;;;;;5053618;28;20032;-74
2021/03/17 00:13:15;;;;;;;17.70;5.57;;;16.80;58.70;;;;;;5053498;28;20029;-74
2021/03/17 00:15:43;;;;;;;15.80;4.45;;;16.80;58.70;;;;;;5053533;28;20492;-74
2021/03/17 00:18:11;;;;;;;15.70;4.78;;;16.80;58.70;;;;;;5053308;28;20031;-74
2021/03/17 00:20:37;;;;;;;14.98;4.18;;;16.80;58.70;;;;;;5053459;28;20066;-74
2021/03/17 00:23:03;;;;;;;14.55;4.38;;;16.70;58.70;;;;;;5052593;28;20485;-74
2021/03/17 00:25:33;;;;;;;15.70;5.05;;;16.70;58.70;;;;;;5053086;28;20056;-74
2021/03/17 00:28:01;;;;;;;12.48;4.30;;;16.70;59.30;;;;;;5053026;28;20400;-74
2021/03/17 00:30:31;;;;;;;13.85;4.07;;;16.70;58.70;;;;;;5053390;28;20431;-74
2021/03/17 00:32:59;;;;;;;13.20;3.95;;;16.70;58.80;;;;;;5053597;28;20485;-75
2021/03/17 00:35:26;;;;;;;13.68;3.78;;;16.70;58.80;;;;;;5053088;28;20083;-74
2021/03/17 00:37:52;;;;;;;14.90;3.97;;;16.60;58.80;;;;;;5035096;28;20057;-74
2021/03/17 00:40:18;;;;;;;13.88;3.78;;;16.60;58.80;;;;;;5053110;28;20139;-74
2021/03/17 00:42:44;;;;;;;13.68;3.53;;;16.60;58.70;;;;;;5051616;28;20024;-74
2021/03/17 00:45:10;;;;;;;15.90;4.00;;;16.60;58.80;;;;;;5052862;28;20036;-74
2021/03/17 00:47:37;;;;;;;11.18;3.65;;;16.60;58.80;;;;;;5052621;28;20027;-74
2021/03/17 00:50:04;;;;;;;14.25;3.92;;;16.60;58.80;;;;;;5051989;28;20114;-74
2021/03/17 00:52:30;;;;;;;12.80;3.50;;;16.50;58.80;;;;;;5052803;28;20016;-74
2021/03/17 00:54:55;;;;;;;9.70;3.72;;;16.50;58.80;;;;;;5053031;28;20507;-74
2021/03/17 00:57:21;;;;;;;12.68;3.70;;;16.50;58.80;;;;;;5052416;28;20032;-74
2021/03/17 00:59:47;;;;;;;12.93;3.20;;;16.50;58.80;;;;;;5052431;28;20109;-74
2021/03/17 01:02:12;;;;;;;13.73;3.63;;;16.40;58.80;;;;;;5052468;28;20032;-74
2021/03/17 01:04:38;;;;;;;13.45;3.72;;;16.40;58.80;;;;;;5052259;28;20021;-75
2021/03/17 01:07:04;;;;;;;13.02;3.58;;;16.40;58.80;;;;;;5052466;28;20109;-75
2021/03/17 01:09:29;;;;;;;11.70;3.70;;;16.40;58.80;;;;;;5052767;28;20025;-74
2021/03/17 01:11:55;;;;;;;10.43;3.30;;;16.40;58.70;;;;;;5052486;28;20028;-74
2021/03/17 01:14:21;;;;;;;9.65;3.00;;;16.40;58.70;;;;;;5052456;28;20103;-74
2021/03/17 01:16:46;;;;;;;10.88;2.92;;;16.30;58.70;;;;;;5052323;28;20377;-74
2021/03/17 01:19:12;;;;;;;9.77;2.95;;;16.30;58.60;;;;;;5051797;28;20025;-74
2021/03/17 01:21:38;;;;;;;8.75;2.42;;;16.30;58.70;;;;;;5052140;28;20441;-74
2021/03/17 01:24:04;;;;;;;9.57;2.45;;;16.30;58.70;;;;;;5051288;28;20044;-73
2021/03/17 01:26:30;;;;;;;7.35;2.10;;;16.20;58.80;;;;;;5052090;28;20021;-73
2021/03/17 01:28:55;;;;;;;7.88;2.33;;;16.20;58.90;;;;;;5051841;28;20424;-74
2021/03/17 01:31:21;;;;;;;7.85;2.55;;;16.10;58.90;;;;;;5052161;28;20083;-73
2021/03/17 01:33:47;;;;;;;7.10;2.20;;;16.10;58.90;;;;;;5052117;28;20028;-73
2021/03/17 01:36:12;;;;;;;7.47;2.33;;;16.10;59.00;;;;;;5052011;28;20025;-73
2021/03/17 01:38:38;;;;;;;9.93;2.50;;;16.10;59.00;;;;;;5051930;28;20025;-74
2021/03/17 01:41:03;;;;;;;7.70;2.13;;;16.10;58.80;;;;;;5052004;28;20021;-74
2021/03/17 01:43:29;;;;;;;8.88;2.55;;;16.10;58.80;;;;;;5052047;28;20546;-73
2021/03/17 01:45:55;;;;;;;7.65;1.70;;;16.00;58.80;;;;;;5051700;28;20021;-73
2021/03/17 01:48:20;;;;;;;6.47;1.75;;;16.00;58.80;;;;;;5051398;28;20036;-73
2021/03/17 01:50:53;;;;;;;5.07;1.80;;;16.00;58.80;;;;;;5051368;28;20070;-73
2021/03/17 01:53:23;;;;;;;7.82;2.15;;;16.00;58.70;;;;;;5051784;28;20040;-73
2021/03/17 01:55:49;;;;;;;6.15;1.83;;;16.00;58.70;;;;;;5051863;28;20158;-73
2021/03/17 01:58:17;;;;;;;6.47;1.50;;;16.00;58.60;;;;;;5051310;28;20021;-74
2021/03/17 02:00:43;;;;;;;4.85;1.75;;;16.00;58.60;;;;;;5051652;28;20024;-73
2021/03/17 02:03:09;;;;;;;5.47;1.85;;;16.00;58.60;;;;;;5051315;28;20393;-74
2021/03/17 02:05:38;;;;;;;6.63;1.52;;;16.00;58.70;;;;;;5050561;28;20063;-74
2021/03/17 02:08:06;;;;;;;4.22;1.70;;;16.00;58.70;;;;;;5051555;28;20037;-74
2021/03/17 02:10:32;;;;;;;5.15;1.63;;;16.00;58.60;;;;;;5051950;28;20029;-74
2021/03/17 02:13:35;;;;;;;5.18;1.73;;;15.90;58.50;;;;;;5051033;28;20473;-74
2021/03/17 02:16:09;;;;;;;3.67;1.50;;;15.90;58.50;;;;;;5051836;28;20515;-74
2021/03/17 02:18:38;;;;;;;5.57;1.55;;;15.80;58.60;;;;;;5051488;28;20369;-74
2021/03/17 02:21:26;;;;;;;6.82;1.70;;;15.90;58.60;;;;;;5051268;28;20070;-74
2021/03/17 02:24:01;;;;;;;4.15;1.10;;;15.80;58.70;;;;;;5051197;28;20025;-73
2021/03/17 02:26:38;;;;;;;5.35;1.73;;;15.80;58.90;;;;;;5050979;28;20033;-73
2021/03/17 02:29:30;;;;;;;4.15;1.42;;;15.70;58.90;;;;;;5051477;28;20041;-74
2021/03/17 02:32:12;;;;;;;4.15;1.40;;;15.70;58.90;;;;;;5051191;28;20025;-74
2021/03/17 02:34:43;;;;;;;6.22;1.38;;;15.70;59.00;;;;;;5051345;28;20028;-74
2021/03/17 02:37:16;;;;;;;3.33;1.40;;;15.70;59.00;;;;;;5051153;28;20037;-74
2021/03/17 02:39:51;;;;;;;4.03;1.77;;;15.60;58.90;;;;;;5051216;28;20025;-74
2021/03/17 02:42:26;;;;;;;;;;;15.60;58.90;;;;;;5051586;28;20499;-73
2021/03/17 02:45:04;;;;;;;3.70;1.58;;;15.60;59.00;;;;;;5050962;28;19905;-74
2021/03/17 02:47:36;;;;;;;4.63;1.60;;;15.60;59.10;;;;;;5051103;28;20038;-73
2021/03/17 02:50:07;;;;;;;2.63;0.98;;;15.60;59.00;;;;;;5051357;28;20044;-73
2021/03/17 02:52:38;;;;;;;4.20;1.58;;;15.60;59.10;;;;;;5033445;28;20037;-73
2021/03/17 02:55:05;;;;;;;4.25;1.30;;;15.50;59.00;;;;;;5051422;28;20028;-73
2021/03/17 02:57:35;;;;;;;3.65;1.15;;;15.60;59.10;;;;;;5050827;28;20029;-73
2021/03/17 03:00:05;;;;;;;3.92;1.40;;;15.50;59.10;;;;;;5051139;28;20477;-73
2021/03/17 03:02:32;;;;;;;3.42;1.40;;;15.50;59.10;;;;;;5051088;28;20025;-73
2021/03/17 03:05:00;;;;;;;3.08;1.40;;;15.50;59.10;;;;;;5050769;28;20025;-73
2021/03/17 03:07:26;;;;;;;4.15;1.55;;;15.50;58.90;;;;;;5050775;28;20063;-73
2021/03/17 03:09:53;;;;;;;4.13;1.30;;;15.50;58.90;;;;;;5050910;28;20029;-73
2021/03/17 03:12:19;;;;;;;3.45;1.40;;;15.60;58.90;;;;;;5050704;28;20048;-73
2021/03/17 03:14:46;;;;;;;3.30;1.25;;;15.50;58.90;;;;;;5050844;28;20060;-73
2021/03/17 03:17:13;;;;;;;4.30;1.45;;;15.50;59.00;;;;;;5050771;28;20021;-74
2021/03/17 03:19:48;;;;;;;2.88;1.80;;;15.50;59.00;;;;;;5050946;28;20047;-74
2021/03/17 03:22:14;;;;;;;2.28;1.40;;;15.50;59.00;;;;;;5050843;28;20029;-73
2021/03/17 03:24:42;;;;;;;2.45;1.45;;;15.40;59.00;;;;;;5050851;28;20041;-74
2021/03/17 03:27:08;;;;;;;3.15;1.40;;;15.40;59.10;;;;;;5054161;28;20083;-74
2021/03/17 03:29:34;;;;;;;2.88;1.30;;;15.40;59.10;;;;;;5054259;28;20037;-73
2021/03/17 03:32:03;;;;;;;2.67;1.05;;;15.40;59.00;;;;;;5054238;28;20386;-73
2021/03/17 03:34:28;;;;;;;3.65;1.58;;;15.40;59.10;;;;;;5054140;28;20017;-73
2021/03/17 03:36:54;;;;;;;4.15;1.33;;;15.40;59.10;;;;;;5053999;28;20439;-72
2021/03/17 03:39:20;;;;;;;4.22;1.75;;;15.40;59.00;;;;;;5054186;28;20507;-73
2021/03/17 03:41:46;;;;;;;2.97;1.20;;;15.40;59.10;;;;;;5054117;28;20021;-73
2021/03/17 03:44:12;;;;;;;2.10;1.33;;;15.40;59.00;;;;;;5054134;28;20074;-74
2021/03/17 03:46:38;;;;;;;3.03;1.10;;;15.40;59.00;;;;;;5036467;28;20025;-73
2021/03/17 03:49:05;;;;;;;3.40;1.20;;;15.30;59.00;;;;;;5054193;28;20033;-73
2021/03/17 03:51:33;;;;;;;2.35;1.25;;;15.40;59.00;;;;;;5035763;28;20027;-73
2021/03/17 03:54:38;;;;;;;2.33;0.88;;;15.40;59.00;;;;;;5053887;28;20484;-73
2021/03/17 03:57:28;;;;;;;3.08;1.05;;;15.30;59.00;;;;;;5053445;28;20032;-73
2021/03/17 04:00:00;;;;;;;2.35;1.02;;;15.30;59.50;;;;;;5053506;28;20123;-74
2021/03/17 04:02:27;;;;;;;1.88;1.20;;;15.40;59.00;;;;;;5053883;28;20346;-74
2021/03/17 04:04:57;;;;;;;2.13;1.35;;;15.30;59.00;;;;;;5053619;28;20622;-74
2021/03/17 04:07:25;;;;;;;3.25;1.20;;;15.30;59.00;;;;;;5053756;28;20112;-74
2021/03/17 04:09:55;;;;;;;3.13;1.10;;;15.30;59.00;;;;;;5053452;28;20021;-74
2021/03/17 04:12:22;;;;;;;2.55;1.15;;;15.30;59.00;;;;;;5053563;28;20499;-73
2021/03/17 04:14:56;;;;;;;1.63;0.90;;;15.30;59.00;;;;;;5053525;28;20044;-74
2021/03/17 04:17:58;;;;;;;3.58;1.00;;;15.30;59.00;;;;;;5053624;28;20021;-74
2021/03/17 04:20:30;;;;;;;1.65;0.90;;;15.30;59.10;;;;;;5049072;28;20124;-74
2021/03/17 04:22:56;;;;;;;1.27;0.80;;;15.30;59.10;;;;;;5035242;28;20028;-74
2021/03/17 04:25:23;;;;;;;2.08;0.88;;;15.20;59.10;;;;;;5053345;28;20021;-73
2021/03/17 04:27:51;;;;;;;1.73;0.73;;;15.20;59.10;;;;;;5051351;28;20098;-74
2021/03/17 04:30:20;;;;;;;2.53;0.75;;;15.20;59.10;;;;;;5053121;28;20503;-73
2021/03/17 04:32:47;;;;;;;2.15;0.90;;;15.20;59.10;;;;;;5052963;28;20078;-74
2021/03/17 04:35:15;;;;;;;1.48;0.73;;;15.20;59.10;;;;;;5052851;28;20013;-74
2021/03/17 04:37:43;;;;;;;1.30;0.77;;;15.20;59.10;;;;;;5052771;28;20369;-74
2021/03/17 04:40:10;;;;;;;2.67;0.80;;;15.20;59.10;;;;;;5053216;28;20484;-74
2021/03/17 04:42:39;;;;;;;2.25;0.70;;;15.20;59.10;;;;;;5052761;28;20403;-74
2021/03/17 04:45:07;;;;;;;3.70;0.95;;;15.20;59.10;;;;;;5053032;28;20039;-74
2021/03/17 04:47:33;;;;;;;1.70;0.80;;;15.20;59.10;;;;;;5052881;28;20218;-74
2021/03/17 04:49:59;;;;;;;2.78;0.90;;;15.20;59.20;;;;;;5052557;28;20041;-74
2021/03/17 04:52:27;;;;;;;2.53;0.80;;;15.20;59.00;;;;;;5052780;28;20053;-74
2021/03/17 04:54:53;;;;;;;1.23;0.60;;;15.20;59.10;;;;;;5052903;28;20029;-74
2021/03/17 04:57:25;;;;;;;1.65;0.70;;;15.20;59.10;;;;;;5052286;28;20016;-74
2021/03/17 04:59:52;;;;;;;1.42;0.63;;;15.10;59.10;;;;;;5032598;28;20018;-73
2021/03/17 05:02:22;;;;;;;1.70;0.40;;;15.10;59.20;;;;;;5032451;28;20084;-74
2021/03/17 05:04:48;;;;;;;1.88;0.50;;;15.10;59.10;;;;;;5032619;28;20021;-73
2021/03/17 05:07:16;;;;;;;1.55;0.50;;;15.10;59.70;;;;;;5032545;28;20036;-74
2021/03/17 05:09:43;;;;;;;2.17;0.50;;;15.10;59.10;;;;;;5032905;28;20018;-74
2021/03/17 05:12:09;;;;;;;2.53;0.80;;;15.10;59.20;;;;;;5032605;28;20452;-74
2021/03/17 05:14:36;;;;;;;1.92;0.50;;;15.10;59.20;;;;;;5032170;28;20438;-74
2021/03/17 05:17:03;;;;;;;1.10;0.50;;;15.10;59.20;;;;;;5032425;28;20030;-74
2021/03/17 05:19:29;;;;;;;1.58;0.73;;;15.10;59.20;;;;;;5032321;28;20014;-73
2021/03/17 05:21:57;;;;;;;2.80;0.85;;;15.10;59.20;;;;;;5032390;28;20025;-74
2021/03/17 05:24:24;;;;;;;3.15;0.50;;;15.10;59.20;;;;;;5032654;28;20510;-74
2021/03/17 05:26:51;;;;;;;1.90;0.60;;;15.10;59.20;;;;;;5043526;28;20047;-73
2021/03/17 05:29:21;;;;;;;1.92;1.10;;;15.10;59.20;;;;;;5052110;28;20021;-73
2021/03/17 05:31:52;;;;;;;1.40;0.50;;;15.10;59.20;;;;;;5052124;28;20116;-73
2021/03/17 05:34:18;;;;;;;0.90;0.50;;;15.00;59.20;;;;;;5052024;28;20409;-73
2021/03/17 05:36:43;;;;;;;2.05;0.60;;;15.00;59.20;;;;;;5052177;28;20095;-73
2021/03/17 05:39:09;;;;;;;2.80;0.80;;;15.10;59.20;;;;;;5051781;28;20507;-73
2021/03/17 05:41:35;;;;;;;1.60;0.60;;;15.00;59.20;;;;;;5033761;28;20499;-73
2021/03/17 05:44:01;;;;;;;1.02;0.68;;;15.00;59.20;;;;;;5051611;28;20091;-73
2021/03/17 05:46:27;;;;;;;2.25;0.60;;;15.00;59.20;;;;;;5033961;28;20090;-74
2021/03/17 05:48:56;;;;;;;2.78;0.70;;;15.00;59.30;;;;;;5050526;28;20033;-73
2021/03/17 05:51:23;;;;;;;3.03;0.70;;;15.00;59.30;;;;;;5051739;28;20074;-73
2021/03/17 05:53:49;;;;;;;1.20;0.52;;;15.00;59.30;;;;;;5051536;28;20413;-73
2021/03/17 05:56:16;;;;;;;2.85;0.70;;;15.00;59.30;;;;;;5051727;28;20021;-73
2021/03/17 05:58:45;;;;;;;1.58;0.60;;;15.00;59.30;;;;;;5052064;28;20023;-73
2021/03/17 06:01:15;;;;;;;1.08;0.43;;;15.00;59.30;;;;;;5051111;28;20029;-73
2021/03/17 06:03:41;;;;;;;3.20;0.68;;;15.00;59.30;;;;;;5051365;28;20385;-73
2021/03/17 06:06:08;;;;;;;2.33;0.60;;;15.00;59.30;;;;;;5051469;28;20550;-73
2021/03/17 06:09:01;;;;;;;3.60;0.80;;;15.00;59.30;;;;;;5051579;28;20030;-73
2021/03/17 06:11:28;;;;;;;3.10;0.90;;;15.00;59.30;;;;;;5048554;28;20036;-74
2021/03/17 06:13:56;;;;;;;5.10;0.93;;;15.00;59.40;;;;;;5051528;28;20024;-74
2021/03/17 06:16:25;;;;;;;2.05;0.80;;;15.00;59.30;;;;;;5033558;28;20028;-74
2021/03/17 06:18:56;;;;;;;5.95;1.05;;;15.00;59.30;;;;;;5051139;28;20024;-74
2021/03/17 06:21:22;;;;;;;4.00;1.00;;;15.00;59.40;;;;;;5033881;28;20037;-74
2021/03/17 06:23:56;;;;;;;3.92;1.00;;;14.90;59.30;;;;;;5051896;28;20070;-74
2021/03/17 06:26:23;;;;;;;5.82;1.20;;;14.90;59.30;;;;;;5051342;28;20083;-74
2021/03/17 06:28:49;;;;;;;4.43;0.98;;;15.00;59.40;;;;;;5032752;28;20033;-74
2021/03/17 06:31:16;;;;;;;2.55;0.93;;;14.90;59.30;;;;;;5051775;28;20052;-74
2021/03/17 06:33:42;;;;;;;5.55;1.20;;;14.90;59.30;;;;;;5051118;28;20393;-74
2021/03/17 06:36:22;;;;;;;4.40;1.38;;;14.90;59.30;;;;;;5051191;28;20036;-74
2021/03/17 06:38:49;;;;;;;4.82;1.48;;;14.90;59.30;;;;;;5051636;28;20025;-74
2021/03/17 06:41:16;;;;;;;5.15;1.52;;;14.90;59.30;;;;;;5051581;28;20025;-74
2021/03/17 06:43:47;;;;;;;4.85;1.20;;;14.90;59.30;;;;;;5051103;28;20389;-74
2021/03/17 06:46:18;;;;;;;9.27;2.20;;;14.90;59.30;;;;;;5050129;28;20025;-74
2021/03/17 06:48:44;;;;;;;6.95;2.10;;;14.90;59.30;;;;;;5050577;28;20037;-73
2021/03/17 06:51:17;;;;;;;7.57;1.65;;;14.90;59.30;;;;;;5050609;28;20152;-73
2021/03/17 06:53:49;;;;;;;8.40;1.77;;;14.90;59.40;;;;;;5051005;28;20021;-73
2021/03/17 06:56:23;;;;;;;8.95;1.90;;;14.90;59.40;;;;;;5051203;28;20025;-74
2021/03/17 06:58:51;;;;;;;6.00;1.80;;;14.90;59.50;;;;;;5050884;28;20554;-75
2021/03/17 07:01:40;;;;;;;7.57;1.77;;;14.90;59.40;;;;;;5054297;28;20035;-76
2021/03/17 07:04:17;;;;;;;8.65;2.22;;;14.90;59.30;;;;;;5053311;28;20036;-75
2021/03/17 07:06:48;;;;;;;5.55;1.45;;;14.90;59.30;;;;;;5054452;28;20572;-74
2021/03/17 07:09:20;;;;;;;9.02;1.83;;;14.90;59.40;;;;;;5035558;28;20521;-73
2021/03/17 07:11:48;;;;;;;6.50;1.83;;;14.90;59.50;;;;;;5054352;28;20082;-76
2021/03/17 07:14:22;;;;;;;9.70;2.38;;;15.00;59.50;;;;;;5035576;28;20025;-75
2021/03/17 07:16:47;;;;;;;10.30;3.17;;;15.00;59.40;;;;;;5036383;28;20039;-78
2021/03/17 07:19:37;;;;;;;10.48;2.10;;;15.20;59.30;;;;;;5053683;28;20025;-75
2021/03/17 07:22:11;;;;;;;9.48;2.25;;;15.40;59.20;;;;;;5046884;28;20049;-75
2021/03/17 07:24:40;;;;;;;8.10;2.17;;;15.50;59.10;;;;;;5053714;28;20473;-74
2021/03/17 07:27:11;;;;;;;9.45;2.70;;;15.70;59.30;;;;;;5054538;28;20025;-73
2021/03/17 07:29:37;;;;;;;10.95;2.65;;;15.70;59.10;;;;;;5053382;28;20048;-75
2021/03/17 07:32:03;;;;;;;10.52;2.50;;;15.90;59.40;;;;;;5053722;28;20029;-76
2021/03/17 07:34:29;;;;;;;11.88;3.13;;;16.10;59.30;;;;;;5053430;28;20112;-75
2021/03/17 07:37:02;;;;;;;11.13;3.15;;;16.20;59.20;;;;;;5054359;28;20477;-76
2021/03/17 07:39:47;;;;;;;9.43;2.42;;;16.30;59.70;;;;;;5050810;28;20029;-76
2021/03/17 07:42:13;;;;;;;11.65;2.55;;;16.40;59.10;;;;;;5053796;28;20389;-74
2021/03/17 07:44:42;;;;;;;13.27;3.60;;;16.50;59.10;;;;;;5053122;28;20025;-77
2021/03/17 07:47:10;;;;;;;12.50;3.45;;;16.60;59.00;;;;;;5053103;28;20025;-79
2021/03/17 07:49:38;;;;;;;13.68;3.47;;;16.70;59.70;;;;;;5052986;28;20459;-79
2021/03/17 07:52:05;;;;;;;17.00;3.53;;;16.80;60.00;;;;;;5053703;28;20025;-74
2021/03/17 07:54:37;;;;;;;13.32;3.78;;;16.90;59.90;;;;;;5053707;28;20404;-74
2021/03/17 07:57:05;;;;;;;11.27;3.55;;;17.00;59.60;;;;;;5052070;28;20471;-73
2021/03/17 07:59:33;;;;;;;15.10;3.72;;;17.00;59.40;;;;;;5051482;28;20033;-73
2021/03/17 08:01:59;;;;;;;15.85;3.17;;;17.00;59.00;;;;;;5052409;28;20067;-74
2021/03/17 08:04:29;;;;;;;14.63;3.85;;;17.10;58.90;;;;;;5052682;28;20036;-73
2021/03/17 08:07:04;;;;;;;11.88;3.22;;;17.20;58.80;;;;;;5053709;28;20048;-74
2021/03/17 08:09:30;;;;;;;11.20;3.10;;;17.20;58.60;;;;;;5052167;28;20035;-73
2021/03/17 08:11:59;;;;;;;17.80;3.75;;;17.20;58.50;;;;;;5051309;28;20037;-76
2021/03/17 08:14:26;;;;;;;15.82;3.35;;;17.30;58.40;;;;;;5052672;28;20017;-75
2021/03/17 08:16:52;;;;;;;15.98;3.65;;;17.40;58.50;;;;;;5053124;28;20029;-76
2021/03/17 08:19:26;;;;;;;17.23;3.42;;;17.40;58.40;;;;;;5053602;28;20112;-78
2021/03/17 08:22:00;;;;;;;14.27;3.72;;;17.40;58.60;;;;;;5053082;28;20025;-75
2021/03/17 08:24:30;;;;;;;11.25;3.15;;;17.50;58.50;;;;;;5052208;28;20028;-76
2021/03/17 08:26:57;;;;;;;11.63;3.58;;;17.50;58.60;;;;;;5034923;28;20673;-75
2021/03/17 08:29:34;;;;;;;15.07;4.00;;;17.60;58.50;;;;;;5052685;28;20044;-74
2021/03/17 08:32:00;;;;;;;12.48;3.97;;;17.70;58.40;;;;;;5053109;28;20017;-76
2021/03/17 08:34:27;;;;;;;13.43;3.65;;;17.70;58.30;;;;;;5053011;28;20025;-74
2021/03/17 08:37:01;;;;;;;13.30;4.10;;;17.80;58.30;;;;;;5053007;28;20124;-76
2021/03/17 08:39:31;;;;;;;12.88;3.63;;;17.80;58.20;;;;;;5035024;28;20502;-76
2021/03/17 08:41:58;;;;;;;14.68;3.92;;;17.80;58.20;;;;;;5053142;28;20032;-75
2021/03/17 08:44:28;;;;;;;14.07;3.63;;;17.80;58.10;;;;;;5053275;28;20046;-75
2021/03/17 08:47:11;;;;;;;13.73;3.53;;;17.80;58.20;;;;;;5053089;28;20474;-76
2021/03/17 08:49:37;;;;;;;14.88;3.65;;;17.80;58.10;;;;;;5052909;28;20087;-76
2021/03/17 08:52:04;;;;;;;14.40;3.90;;;17.80;58.00;;;;;;5051958;28;20431;-77
2021/03/17 08:54:32;;;;;;;12.85;3.30;;;17.80;58.20;;;;;;5050877;28;20028;-76
2021/03/17 08:57:13;;;;;;;13.75;3.78;;;17.80;58.10;;;;;;5052135;28;20037;-75
2021/03/17 08:59:41;;;;;;;11.90;3.63;;;17.70;58.10;;;;;;5052615;28;20032;-75
2021/03/17 09:02:22;;;;;;;12.50;3.47;;;17.70;58.10;;;;;;5051141;28;20130;-76
2021/03/17 09:04:49;;;;;;;12.43;3.67;;;17.70;58.10;;;;;;5014915;28;20033;-76
2021/03/17 09:07:17;;;;;;;13.70;3.78;;;17.70;58.10;;;;;;5042931;28;20037;-77
2021/03/17 09:09:54;;;;;;;12.02;3.67;;;17.70;58.10;;;;;;5052643;28;20501;-77
2021/03/17 09:12:39;;;;;;;13.27;3.47;;;17.60;57.90;;;;;;5052250;28;20009;-77
2021/03/17 09:15:14;;;;;;;15.80;3.80;;;17.60;57.90;;;;;;5051902;28;20025;-76
2021/03/17 09:17:45;;;;;;;10.25;3.50;;;17.60;57.80;;;;;;5052445;28;20024;-77
2021/03/17 09:20:23;;;;;;;9.82;3.35;;;17.60;57.70;;;;;;5052195;28;20079;-77
2021/03/17 09:22:57;;;;;;;15.30;4.32;;;17.60;57.60;;;;;;5051557;28;20527;-77
2021/03/17 09:25:29;;;;;;;13.48;4.50;;;17.50;57.60;;;;;;5034542;28;20036;-77
2021/03/17 09:28:02;;;;;;;10.07;3.85;;;17.50;57.60;;;;;;5051759;28;20025;-76
2021/03/17 09:30:31;;;;;;;14.50;3.40;;;17.40;57.60;;;;;;5034186;28;20447;-77
2021/03/17 09:33:04;;;;;;;13.65;3.67;;;17.40;57.60;;;;;;5033912;28;20021;-77
2021/03/17 09:35:30;;;;;;;12.95;3.63;;;17.30;57.60;;;;;;5033055;28;20024;-77
2021/03/17 09:38:04;;;;;;;13.98;3.33;;;17.30;57.50;;;;;;5052368;28;20025;-77
2021/03/17 09:40:37;;;;;;;10.00;3.50;;;17.30;57.50;;;;;;5050551;28;20396;-76
2021/03/17 09:43:03;;;;;;;12.20;3.80;;;17.20;57.40;;;;;;5051896;28;20148;-77
2021/03/17 09:45:29;;;;;;;9.25;3.20;;;17.20;57.30;;;;;;5033977;28;20104;-77
2021/03/17 09:47:57;;;;;;;12.65;2.92;;;17.20;57.30;;;;;;5051957;28;20029;-77
2021/03/17 09:50:25;;;;;;;13.73;3.65;;;17.20;57.30;;;;;;5052212;28;20499;-77
2021/03/17 09:52:51;;;;;;;10.68;3.53;;;17.20;57.30;;;;;;5051296;28;20040;-76
2021/03/17 09:55:28;;;;;;;12.80;3.42;;;17.10;57.30;;;;;;5051250;28;20049;-76
2021/03/17 09:58:03;;;;;;;11.57;3.13;;;17.10;57.30;;;;;;5032274;28;20078;-76
2021/03/17 10:00:30;;;;;;;12.20;3.30;;;17.10;57.30;;;;;;5051872;28;20024;-77
2021/03/17 10:02:58;;;;;;;12.00;3.10;;;17.00;57.30;;;;;;5050623;28;20111;-76
2021/03/17 10:05:23;;;;;;;12.38;3.15;;;17.00;57.30;;;;;;5051247;28;20047;-77
2021/03/17 10:07:50;;;;;;;9.85;3.22;;;17.00;57.40;;;;;;5051383;28;20040;-77
2021/03/17 10:10:15;;;;;;;10.95;3.70;;;16.90;57.40;;;;;;5051466;28;20025;-76
2021/03/17 10:12:43;;;;;;;11.50;2.97;;;16.90;57.40;;;;;;5051323;28;20109;-76
2021/03/17 10:15:12;;;;;;;10.45;3.15;;;16.90;57.40;;;;;;5051112;28;20029;-77
2021/03/17 10:17:38;;;;;;;10.88;3.28;;;16.80;57.40;;;;;;5051451;28;20120;-77
2021/03/17 10:20:08;;;;;;;14.05;3.42;;;16.80;57.30;;;;;;5051425;28;20036;-77
2021/03/17 10:22:35;;;;;;;9.18;3.17;;;16.90;57.30;;;;;;5051417;28;20481;-76
2021/03/17 10:25:07;;;;;;;8.50;3.03;;;16.90;57.20;;;;;;5051447;28;20104;-76
2021/03/17 10:27:38;;;;;;;9.55;3.25;;;16.80;57.20;;;;;;5051102;28;20040;-76
2021/03/17 10:30:15;;;;;;;11.13;2.83;;;16.80;57.20;;;;;;5051489;28;20131;-77
2021/03/17 10:32:42;;;;;;;8.25;2.22;;;16.70;57.20;;;;;;5050934;28;20021;-75
2021/03/17 10:35:11;;;;;;;9.10;2.78;;;16.70;57.30;;;;;;5053136;28;20033;-77
2021/03/17 10:37:37;;;;;;;9.50;2.85;;;16.70;57.30;;;;;;5054617;28;20043;-77
2021/03/17 10:40:12;;;;;;;8.23;2.22;;;16.70;57.30;;;;;;5055500;28;20442;-76
2021/03/17 10:42:46;;;;;;;7.50;2.17;;;16.60;57.30;;;;;;5055353;28;20033;-77
2021/03/17 10:45:18;;;;;;;7.50;2.30;;;16.60;57.40;;;;;;5055287;28;20036;-77
2021/03/17 10:47:44;;;;;;;9.43;2.22;;;16.60;57.40;;;;;;5053157;28;20017;-77
2021/03/17 10:50:17;;;;;;;8.65;2.20;;;16.60;57.40;;;;;;5049364;28;20044;-77
2021/03/17 10:52:47;;;;;;;9.90;2.72;;;16.60;57.40;;;;;;5049878;28;20017;-77
2021/03/17 10:55:34;;;;;;;7.55;2.35;;;16.60;57.30;;;;;;5050074;28;20037;-77
2021/03/17 10:58:11;;;;;;;7.10;2.22;;;16.60;57.30;;;;;;5050227;28;20409;-76
2021/03/17 11:00:37;;;;;;;8.23;2.20;;;16.50;57.30;;;;;;5049213;28;20029;-76
2021/03/17 11:03:20;;;;;;;9.35;2.58;;;16.60;57.40;;;;;;5050001;28;20025;-76
2021/03/17 11:05:45;;;;;;;5.80;1.48;;;16.50;57.30;;;;;;5049152;28;20063;-76
2021/03/17 11:08:11;;;;;;;7.60;2.35;;;16.50;57.30;;;;;;5050022;28;20075;-76
2021/03/17 11:10:43;;;;;;;6.15;2.13;;;16.50;57.30;;;;;;5049182;28;20039;-77
2021/03/17 11:13:08;;;;;;;5.75;1.75;;;16.50;57.20;;;;;;5048821;28;20417;-77
2021/03/17 11:15:41;;;;;;;8.38;2.30;;;16.50;57.30;;;;;;5049488;28;20067;-77
2021/03/17 11:18:06;;;;;;;6.68;2.22;;;16.50;57.30;;;;;;5052454;28;20032;-76
2021/03/17 11:20:42;;;;;;;10.38;2.45;;;16.50;57.30;;;;;;5054863;28;20033;-76
2021/03/17 11:23:20;;;;;;;7.22;1.88;;;16.50;57.30;;;;;;5052780;28;20029;-76
2021/03/17 11:25:47;;;;;;;7.25;2.15;;;16.40;57.30;;;;;;5051123;28;20074;-76
2021/03/17 11:28:15;;;;;;;5.40;1.80;;;16.40;57.50;;;;;;5054462;28;20566;-77
2021/03/17 11:30:43;;;;;;;5.50;2.13;;;16.40;57.40;;;;;;5054418;28;20092;-77
2021/03/17 11:33:11;;;;;;;11.10;2.22;;;16.40;57.50;;;;;;5053995;28;20029;-76
2021/03/17 11:35:36;;;;;;;7.10;1.90;;;16.40;57.50;;;;;;5036321;28;20021;-77
2021/03/17 11:38:02;;;;;;;5.63;1.70;;;16.40;57.50;;;;;;5054068;28;20370;-76
2021/03/17 11:40:28;;;;;;;5.03;1.48;;;16.40;57.60;;;;;;5053724;28;20402;-75
2021/03/17 11:43:01;;;;;;;5.72;1.42;;;16.50;57.70;;;;;;5054133;28;20038;-76
2021/03/17 11:45:27;;;;;;;6.95;1.67;;;16.60;57.70;;;;;;5053377;28;20476;-76
2021/03/17 11:47:53;;;;;;;5.10;1.38;;;16.60;57.60;;;;;;5053333;28;20035;-76
2021/03/17 11:50:18;;;;;;;5.47;1.67;;;16.70;57.50;;;;;;5054187;28;20117;-76
2021/03/17 11:52:44;;;;;;;5.20;1.70;;;16.70;57.30;;;;;;5053156;28;20036;-76
2021/03/17 11:55:10;;;;;;;8.43;2.20;;;16.80;57.10;;;;;;5035009;28;20443;-76
2021/03/17 11:57:35;;;;;;;7.90;1.65;;;16.80;57.10;;;;;;5052185;28;20519;-76
2021/03/17 12:00:01;;;;;;;5.70;1.50;;;16.90;57.20;;;;;;5053815;28;20021;-76
2021/03/17 12:02:27;;;;;;;5.57;1.45;;;16.90;57.10;;;;;;5034902;28;20086;-77
2021/03/17 12:04:52;;;;;;;7.15;1.70;;;17.00;57.60;;;;;;5053244;28;20524;-77
2021/03/17 12:07:18;;;;;;;7.32;1.85;;;17.10;57.60;;;;;;5052353;28;20036;-75
2021/03/17 12:09:44;;;;;;;6.80;1.42;;;17.20;57.40;;;;;;5052603;28;20025;-77
2021/03/17 12:12:09;;;;;;;4.97;1.27;;;17.30;57.30;;;;;;5052264;28;20079;-77
2021/03/17 12:14:35;;;;;;;5.03;1.40;;;17.30;57.20;;;;;;5053761;28;20410;-78
2021/03/17 12:17:01;;;;;;;5.45;1.40;;;17.40;57.20;;;;;;5053719;28;20021;-77
2021/03/17 12:19:26;;;;;;;5.60;1.75;;;17.50;57.20;;;;;;5053291;28;20469;-77
2021/03/17 12:21:52;;;;;;;6.15;1.35;;;17.60;57.00;;;;;;5053476;28;20029;-77
2021/03/17 12:24:18;;;;;;;3.30;1.20;;;17.70;56.90;;;;;;5053442;28;20068;-77
2021/03/17 12:26:43;;;;;;;6.70;1.50;;;17.80;56.90;;;;;;5051973;28;20101;-77
2021/03/17 12:29:09;;;;;;;5.43;1.50;;;17.80;56.60;;;;;;5053070;28;20036;-77
2021/03/17 12:31:34;;;;;;;4.43;1.35;;;17.90;56.60;;;;;;5053591;28;20100;-77
2021/03/17 12:34:00;;;;;;;10.23;1.88;;;17.90;56.40;;;;;;5050917;28;20499;-76
2021/03/17 12:36:26;;;;;;;7.40;1.63;;;18.00;56.20;;;;;;5052293;28;20410;-77
2021/03/17 12:38:51;;;;;;;6.72;2.58;;;18.00;56.40;;;;;;5053167;28;20473;-76
2021/03/17 12:41:17;;;;;;;6.05;1.60;;;18.00;56.40;;;;;;5052420;28;20488;-74
2021/03/17 12:43:42;;;;;;;8.63;1.58;;;18.00;56.70;;;;;;5034845;28;20029;-75
2021/03/17 12:46:08;;;;;;;23.23;8.35;;;18.00;56.80;;;;;;5052366;28;20036;-74
2021/03/17 12:48:34;;;;;;;37.35;10.52;;;18.00;57.00;;;;;;5035157;28;20048;-76
2021/03/17 12:50:59;;;;;;;26.20;7.57;;;17.90;57.20;;;;;;5052664;28;20393;-75
2021/03/17 12:53:25;;;;;;;26.35;7.30;;;17.80;57.40;;;;;;5052071;28;20111;-75